Time;durP1;ratioP1;P1;durP2;ratioP2;P2;SDS_P1;SDS_P2;PMS_P1;PMS_P2;Temp;Humidity;BMP_temperature;BMP_pressure;BME280_temperature;BME280_humidity;BME280_pressure;Samples;Min_cycle;Max_cycle;Signal;HPM_P1;HPM_P2
2021/08/19 00:00:25;;;;;;;8.93;5.60;;;;;;;19.02;61.26;99460.03;6039220;23;20114;-79
2021/08/19 00:02:52;;;;;;;8.13;6.28;;;;;;;19.01;61.23;99457.50;6039064;23;20037;-79
2021/08/19 00:05:19;;;;;;;8.40;5.65;;;;;;;19.00;61.10;99454.00;6039024;23;20106;-79
2021/08/19 00:07:47;;;;;;;8.02;5.38;;;;;;;19.01;61.15;99461.03;6040588;23;20106;-79
2021/08/19 00:10:14;;;;;;;8.30;5.47;;;;;;;19.02;60.99;99456.53;6038934;23;20105;-79
2021/08/19 00:12:41;;;;;;;9.35;5.65;;;;;;;19.03;61.39;99455.56;6039365;23;20111;-79
2021/08/19 00:15:09;;;;;;;6.18;4.93;;;;;;;19.02;61.32;99453.84;6038879;23;20114;-79
2021/08/19 00:17:35;;;;;;;7.43;4.88;;;;;;;19.05;61.10;99452.72;6040449;23;20106;-79
2021/08/19 00:20:05;;;;;;;9.27;5.82;;;;;;;19.03;61.19;99458.22;6038872;23;20023;-79
2021/08/19 00:22:32;;;;;;;8.35;5.72;;;;;;;19.05;60.94;99450.03;6039082;23;20102;-79
2021/08/19 00:24:59;;;;;;;7.85;5.10;;;;;;;19.05;61.05;99460.72;6039152;23;20115;-79
2021/08/19 00:27:26;;;;;;;6.50;4.97;;;;;;;19.04;61.24;99456.38;6040729;23;20535;-79
2021/08/19 00:29:53;;;;;;;7.72;5.53;;;;;;;19.03;60.69;99460.88;6016345;23;20027;-79
2021/08/19 00:32:21;;;;;;;7.20;5.13;;;;;;;19.01;61.25;99452.19;6040975;23;20444;-79
2021/08/19 00:34:47;;;;;;;7.47;5.32;;;;;;;19.01;61.10;99452.19;6038839;23;20034;-79
2021/08/19 00:37:14;;;;;;;6.93;5.05;;;;;;;19.00;60.78;99456.66;6039329;23;20024;-81
2021/08/19 00:39:42;;;;;;;10.73;5.10;;;;;;;19.00;60.86;99461.19;6039260;23;20023;-81
2021/08/19 00:42:10;;;;;;;6.47;5.47;;;;;;;19.00;60.81;99451.34;6039066;23;20030;-79
2021/08/19 00:44:43;;;;;;;7.10;5.47;;;;;;;18.97;60.96;99453.47;6038425;23;20034;-79
2021/08/19 00:47:10;;;;;;;6.13;4.70;;;;;;;19.00;61.04;99463.84;6038718;23;20031;-79
2021/08/19 00:49:38;;;;;;;6.05;5.22;;;;;;;18.99;61.07;99455.00;6039068;23;20045;-79
2021/08/19 00:52:06;;;;;;;8.98;5.60;;;;;;;18.99;61.07;99459.50;6040528;23;20343;-79
2021/08/19 00:54:35;;;;;;;9.18;5.35;;;;;;;19.00;60.90;99466.50;6039012;23;20027;-79
2021/08/19 00:57:04;;;;;;;6.70;4.97;;;;;;;18.99;61.35;99457.66;6039023;23;20027;-79
2021/08/19 00:59:36;;;;;;;6.65;5.60;;;;;;;19.00;60.97;99455.84;6038692;23;20031;-79
2021/08/19 01:02:03;;;;;;;8.88;6.10;;;;;;;19.00;61.36;99461.19;6039054;23;20035;-79
2021/08/19 01:04:33;;;;;;;10.90;6.13;;;;;;;18.98;61.55;99464.00;6038408;23;20031;-79
2021/08/19 01:07:00;;;;;;;7.15;5.75;;;;;;;18.99;61.12;99465.66;6039332;23;20431;-79
2021/08/19 01:09:34;;;;;;;8.57;6.25;;;;;;;18.95;61.74;99461.63;6038601;23;20031;-79
2021/08/19 01:12:05;;;;;;;9.57;6.93;;;;;;;18.97;61.40;99459.66;6038616;23;20031;-79
2021/08/19 01:14:35;;;;;;;8.40;6.10;;;;;;;18.96;61.55;99474.00;6038857;23;20471;-80
2021/08/19 01:17:18;;;;;;;8.50;6.80;;;;;;;18.94;61.77;99472.44;6039435;23;20047;-81
2021/08/19 01:19:46;;;;;;;9.80;6.80;;;;;;;18.97;61.43;99454.31;6038527;23;20023;-79
2021/08/19 01:22:15;;;;;;;10.75;6.95;;;;;;;18.96;61.78;99459.81;6038893;23;20057;-79
2021/08/19 01:24:42;;;;;;;9.73;6.55;;;;;;;18.97;61.75;99453.47;6038696;23;20038;-79
2021/08/19 01:27:12;;;;;;;9.00;6.75;;;;;;;18.95;62.15;99458.94;6038790;23;20019;-80
2021/08/19 01:29:42;;;;;;;9.13;7.35;;;;;;;18.95;62.03;99458.94;6038491;23;20024;-81
2021/08/19 01:32:10;;;;;;;10.05;6.90;;;;;;;18.96;61.80;99454.47;6038443;23;20030;-81
2021/08/19 01:34:38;;;;;;;7.53;6.32;;;;;;;18.96;62.00;99459.81;6038109;23;20027;-81
2021/08/19 01:37:06;;;;;;;9.07;7.32;;;;;;;18.96;62.16;99459.81;6038694;23;20028;-79
2021/08/19 01:39:33;;;;;;;11.10;8.40;;;;;;;18.95;62.22;99452.78;6038919;23;20038;-79
2021/08/19 01:42:01;;;;;;;10.68;8.23;;;;;;;18.95;62.19;99463.47;6038678;23;20027;-79
2021/08/19 01:44:29;;;;;;;12.60;8.82;;;;;;;18.93;62.30;99466.28;6038456;23;20030;-79
2021/08/19 01:46:57;;;;;;;11.80;8.25;;;;;;;18.93;62.39;99457.44;6038652;23;20020;-79
2021/08/19 01:49:28;;;;;;;12.35;8.63;;;;;;;18.91;62.96;99462.91;6038850;23;20107;-79
2021/08/19 01:51:58;;;;;;;10.45;8.52;;;;;;;18.91;62.87;99462.09;6038326;23;20038;-79
2021/08/19 01:54:26;;;;;;;11.68;8.43;;;;;;;18.91;62.36;99460.22;6038100;23;20030;-79
2021/08/19 01:56:54;;;;;;;13.40;8.50;;;;;;;18.91;62.98;99454.09;6038140;23;20033;-81
2021/08/19 01:59:20;;;;;;;11.88;8.95;;;;;;;18.91;62.56;99454.91;6038790;23;20027;-79
2021/08/19 02:01:48;;;;;;;10.88;9.25;;;;;;;18.91;62.94;99460.22;6040269;23;20031;-79
2021/08/19 02:04:15;;;;;;;12.43;9.45;;;;;;;18.92;63.09;99455.75;6038141;23;20032;-79
2021/08/19 02:06:43;;;;;;;11.50;8.80;;;;;;;18.91;62.75;99454.91;6038909;23;20098;-79
2021/08/19 02:09:10;;;;;;;12.07;8.90;;;;;;;18.92;62.69;99447.75;6039460;23;20035;-79
2021/08/19 02:11:38;;;;;;;12.27;9.25;;;;;;;18.91;62.96;99462.91;6038281;23;20031;-79
2021/08/19 02:14:06;;;;;;;12.23;9.48;;;;;;;18.90;63.00;99447.91;6038233;23;20038;-79
2021/08/19 02:16:34;;;;;;;13.23;8.75;;;;;;;18.91;62.70;99454.91;6039856;23;20109;-81
2021/08/19 02:19:01;;;;;;;12.93;9.10;;;;;;;18.89;63.14;99455.03;6041125;23;20432;-81
2021/08/19 02:21:28;;;;;;;11.85;9.27;;;;;;;18.88;63.01;99458.72;6039272;23;20030;-79
2021/08/19 02:23:55;;;;;;;13.13;9.65;;;;;;;18.87;62.71;99458.84;6039306;23;20023;-79
2021/08/19 02:26:25;;;;;;;11.55;8.77;;;;;;;18.84;63.21;99460.00;6040899;23;20435;-79
2021/08/19 02:28:51;;;;;;;10.27;9.00;;;;;;;18.83;63.19;99457.47;6040755;23;20383;-79
2021/08/19 02:31:28;;;;;;;14.63;10.05;;;;;;;18.77;63.45;99461.59;6040263;23;20328;-79
2021/08/19 02:33:56;;;;;;;13.40;10.07;;;;;;;18.79;63.37;99462.28;6051714;23;20031;-79
2021/08/19 02:36:23;;;;;;;11.98;9.05;;;;;;;18.77;63.14;99450.06;6045209;23;20026;-79
2021/08/19 02:38:50;;;;;;;11.13;9.10;;;;;;;18.75;63.54;99452.88;6045149;23;20348;-79
2021/08/19 02:41:24;;;;;;;13.60;9.60;;;;;;;18.72;64.33;99454.03;6044663;23;20105;-79
2021/08/19 02:43:50;;;;;;;12.52;10.15;;;;;;;18.74;63.42;99456.56;6045042;23;20022;-79
2021/08/19 02:46:18;;;;;;;15.60;10.18;;;;;;;18.73;64.04;99454.88;6044823;23;20084;-79
2021/08/19 02:48:45;;;;;;;12.68;9.80;;;;;;;18.74;63.52;99451.22;6070266;23;20101;-79
2021/08/19 02:51:12;;;;;;;11.68;9.77;;;;;;;18.73;63.88;99446.88;6045114;23;20153;-79
2021/08/19 02:53:42;;;;;;;13.25;9.88;;;;;;;18.71;64.40;99443.50;6045046;23;20384;-79
2021/08/19 02:56:09;;;;;;;14.93;10.40;;;;;;;18.72;63.79;99435.38;6044645;23;20023;-79
2021/08/19 02:58:37;;;;;;;13.70;10.35;;;;;;;18.72;64.17;99440.69;6044733;23;20023;-79
2021/08/19 03:01:04;;;;;;;13.65;10.15;;;;;;;18.73;63.73;99433.56;6044846;23;20041;-79
2021/08/19 03:03:33;;;;;;;13.35;11.00;;;;;;;18.72;64.00;99437.19;6044740;23;20069;-79
2021/08/19 03:06:00;;;;;;;13.32;10.75;;;;;;;18.71;63.99;99436.34;6044930;23;20361;-79
2021/08/19 03:08:39;;;;;;;14.55;10.77;;;;;;;18.67;64.45;99442.13;6044611;23;20018;-79
2021/08/19 03:11:05;;;;;;;13.40;10.60;;;;;;;18.69;63.87;99438.31;6069543;23;20022;-79
2021/08/19 03:13:41;;;;;;;13.93;10.85;;;;;;;18.63;64.38;99438.94;6044943;23;20406;-79
2021/08/19 03:16:08;;;;;;;15.90;10.93;;;;;;;18.63;63.79;99436.25;6044591;23;20029;-79
2021/08/19 03:18:38;;;;;;;14.35;11.07;;;;;;;18.60;63.98;99433.88;6044927;23;20062;-79
2021/08/19 03:21:05;;;;;;;12.82;10.77;;;;;;;18.58;64.13;99444.69;6044541;23;20029;-79
2021/08/19 03:23:36;;;;;;;12.35;10.15;;;;;;;18.54;64.44;99439.81;6044605;23;20065;-79
2021/08/19 03:26:05;;;;;;;14.60;10.32;;;;;;;18.53;64.29;99441.63;6044645;23;20035;-79
2021/08/19 03:28:32;;;;;;;14.27;10.70;;;;;;;18.51;63.94;99440.94;6045440;23;20335;-79
2021/08/19 03:31:07;;;;;;;12.13;9.95;;;;;;;18.47;64.71;99439.56;6044751;23;20034;-79
2021/08/19 03:33:34;;;;;;;20.52;10.15;;;;;;;18.49;64.23;99442.91;6069716;23;20431;-79
2021/08/19 03:36:00;;;;;;;14.98;10.73;;;;;;;18.49;64.22;99438.44;6044654;23;20027;-79
2021/08/19 03:38:42;;;;;;;13.02;9.90;;;;;;;18.49;64.25;99442.91;6047380;23;20351;-78
2021/08/19 03:41:10;;;;;;;13.52;10.82;;;;;;;18.50;64.33;99441.91;6044586;23;20347;-79
2021/08/19 03:43:38;;;;;;;12.48;9.43;;;;;;;18.51;64.55;99446.28;6044566;23;20022;-79
2021/08/19 03:46:04;;;;;;;11.65;9.65;;;;;;;18.50;64.20;99439.25;6044582;23;20035;-79
2021/08/19 03:48:31;;;;;;;11.35;9.55;;;;;;;18.50;64.35;99433.91;6044732;23;20027;-81
2021/08/19 03:51:32;;;;;;;11.40;9.43;;;;;;;18.47;64.69;99436.91;6044309;23;20037;-81
2021/08/19 03:53:59;;;;;;;12.70;9.20;;;;;;;18.53;63.94;99438.13;6044290;23;20117;-81
2021/08/19 03:56:28;;;;;;;10.80;9.02;;;;;;;18.52;64.00;99439.09;6044980;23;20023;-81
2021/08/19 03:58:56;;;;;;;10.68;9.00;;;;;;;18.52;63.97;99442.63;6044424;23;20049;-81
2021/08/19 04:01:23;;;;;;;10.73;9.20;;;;;;;18.53;63.93;99438.97;6044409;23;20031;-81
2021/08/19 04:04:05;;;;;;;10.55;8.40;;;;;;;18.48;64.68;99450.09;6044215;23;20026;-81
2021/08/19 04:06:32;;;;;;;16.02;9.68;;;;;;;18.53;64.29;99444.28;6044357;23;20498;-81
2021/08/19 04:09:18;;;;;;;13.00;8.90;;;;;;;18.49;64.23;99441.09;6044338;23;20033;-81
2021/08/19 04:11:44;;;;;;;12.43;9.98;;;;;;;18.53;63.75;99441.63;6044386;23;20029;-81
2021/08/19 04:14:11;;;;;;;10.77;8.75;;;;;;;18.54;63.87;99447.81;6043991;23;20023;-81
2021/08/19 04:16:38;;;;;;;10.07;8.77;;;;;;;18.54;64.04;99445.16;6044282;23;20030;-79
2021/08/19 04:19:04;;;;;;;10.25;8.43;;;;;;;18.54;63.96;99459.28;6043943;23;20027;-79
2021/08/19 04:21:32;;;;;;;13.50;9.50;;;;;;;18.56;64.11;99456.47;6044240;23;20026;-79
2021/08/19 04:23:59;;;;;;;12.70;10.02;;;;;;;18.55;63.83;99458.34;6043967;23;20023;-79
2021/08/19 04:26:27;;;;;;;12.68;10.13;;;;;;;18.56;64.17;99453.81;6044197;23;20190;-79
2021/08/19 04:29:00;;;;;;;14.43;10.35;;;;;;;18.54;64.27;99455.81;6044059;23;20494;-79
2021/08/19 04:31:27;;;;;;;11.93;9.63;;;;;;;18.56;64.27;99449.34;6044771;23;20442;-79
2021/08/19 04:33:54;;;;;;;13.82;10.18;;;;;;;18.56;64.09;99452.00;6043390;23;20023;-79
2021/08/19 04:36:20;;;;;;;12.00;10.20;;;;;;;18.56;63.82;99452.00;6044283;23;20046;-79
2021/08/19 04:38:47;;;;;;;12.82;9.90;;;;;;;18.57;64.19;99450.16;6043875;23;20029;-79
2021/08/19 04:41:14;;;;;;;13.73;10.43;;;;;;;18.56;64.08;99448.50;6044470;23;20033;-79
2021/08/19 04:43:40;;;;;;;14.75;10.02;;;;;;;18.57;63.96;99452.81;6044694;23;20029;-79
2021/08/19 04:46:08;;;;;;;15.95;10.00;;;;;;;18.57;64.05;99451.00;6043744;23;20105;-79
2021/08/19 04:48:35;;;;;;;13.73;9.73;;;;;;;18.58;63.97;99455.34;6044046;23;20041;-79
2021/08/19 04:51:03;;;;;;;12.85;9.93;;;;;;;18.58;63.73;99446.53;6044086;23;20030;-79
2021/08/19 04:53:29;;;;;;;12.75;9.85;;;;;;;18.59;63.75;99446.38;6043616;23;20037;-79
2021/08/19 04:55:56;;;;;;;11.65;9.30;;;;;;;18.59;63.93;99446.38;6043386;23;20109;-79
2021/08/19 04:58:26;;;;;;;13.73;10.07;;;;;;;18.60;64.29;99440.06;6043899;23;20026;-79
2021/08/19 05:00:54;;;;;;;13.60;10.20;;;;;;;18.60;63.87;99445.41;6043960;23;20033;-79
2021/08/19 05:03:21;;;;;;;12.63;10.35;;;;;;;18.64;64.16;99450.44;6044048;23;20134;-82
2021/08/19 05:05:48;;;;;;;12.20;10.27;;;;;;;18.65;63.75;99449.44;6043383;23;20026;-82
2021/08/19 05:08:20;;;;;;;12.82;10.77;;;;;;;18.60;64.08;99448.06;6043771;23;20472;-81
2021/08/19 05:10:46;;;;;;;14.73;10.70;;;;;;;18.62;64.06;99448.72;6043696;23;20034;-82
2021/08/19 05:13:13;;;;;;;15.60;10.63;;;;;;;18.63;63.89;99449.59;6068656;23;20029;-81
2021/08/19 05:15:40;;;;;;;15.23;11.00;;;;;;;18.61;63.96;99455.06;6043061;23;20026;-81
2021/08/19 05:18:10;;;;;;;11.35;9.75;;;;;;;18.60;64.10;99453.38;6043750;23;20098;-81
2021/08/19 05:20:36;;;;;;;12.48;10.82;;;;;;;18.64;64.26;99458.44;6043454;23;20022;-81
2021/08/19 05:23:03;;;;;;;13.25;10.85;;;;;;;18.65;64.37;99457.44;6044314;23;20447;-81
2021/08/19 05:25:30;;;;;;;13.15;10.27;;;;;;;18.67;64.55;99455.44;6043555;23;20446;-81
2021/08/19 05:27:56;;;;;;;16.30;11.55;;;;;;;18.67;64.57;99456.31;6043802;23;20105;-81
2021/08/19 05:30:23;;;;;;;14.27;11.45;;;;;;;18.68;64.57;99452.66;6044120;23;20023;-81
2021/08/19 05:32:50;;;;;;;14.88;11.77;;;;;;;18.70;64.54;99455.16;6043734;23;20029;-82
2021/08/19 05:35:17;;;;;;;13.85;11.10;;;;;;;18.72;64.35;99463.84;6038214;23;20034;-81
2021/08/19 05:37:45;;;;;;;12.65;10.68;;;;;;;18.73;64.60;99469.03;6038664;23;20023;-78
2021/08/19 05:40:11;;;;;;;12.73;11.13;;;;;;;18.76;64.64;99467.91;6038388;23;20024;-78
2021/08/19 05:42:38;;;;;;;16.83;11.02;;;;;;;18.78;64.60;99462.41;6038735;23;20054;-78
2021/08/19 05:45:06;;;;;;;13.35;10.25;;;;;;;18.80;64.33;99463.13;6039128;23;20431;-77
2021/08/19 05:47:32;;;;;;;14.90;11.80;;;;;;;18.81;64.43;99462.97;6038367;23;20023;-79
2021/08/19 05:50:00;;;;;;;13.70;11.38;;;;;;;18.83;64.49;99470.81;6039373;23;20321;-78
2021/08/19 05:52:27;;;;;;;13.60;10.98;;;;;;;18.84;64.67;99467.16;6040723;23;20031;-78
2021/08/19 05:55:02;;;;;;;13.30;11.38;;;;;;;18.86;64.77;99465.19;6040449;23;20448;-78
2021/08/19 05:57:29;;;;;;;17.40;11.82;;;;;;;18.90;64.41;99463.91;6040447;23;20023;-81
2021/08/19 06:00:20;;;;;;;16.10;11.43;;;;;;;18.87;65.13;99467.69;6040732;23;20030;-81
2021/08/19 06:02:48;;;;;;;14.80;11.02;;;;;;;18.96;64.76;99467.81;6040265;23;20027;-81
2021/08/19 06:05:16;;;;;;;17.88;12.10;;;;;;;18.99;64.47;99462.19;6041734;23;20031;-81
2021/08/19 06:08:09;;;;;;;15.68;12.18;;;;;;;18.98;65.09;99474.66;6040642;23;20451;-81
2021/08/19 06:10:36;;;;;;;15.57;11.65;;;;;;;19.08;64.75;99471.13;6040732;23;20102;-81
2021/08/19 06:13:15;;;;;;;18.23;12.30;;;;;;;19.08;65.04;99471.13;6040457;23;20031;-81
2021/08/19 06:15:41;;;;;;;17.45;13.40;;;;;;;19.16;64.45;99476.56;6040612;23;20027;-81
2021/08/19 06:18:08;;;;;;;16.05;12.48;;;;;;;19.19;64.87;99478.06;6040085;23;20031;-81
2021/08/19 06:20:35;;;;;;;19.30;14.15;;;;;;;19.22;64.71;99481.28;6040178;23;20033;-81
2021/08/19 06:23:12;;;;;;;18.30;13.52;;;;;;;19.23;65.30;99480.31;6040453;23;20023;-81
2021/08/19 06:25:41;;;;;;;23.67;15.20;;;;;;;19.29;65.09;99476.19;6040150;23;20027;-82
2021/08/19 06:28:08;;;;;;;18.33;13.48;;;;;;;19.32;65.03;99472.38;6041306;23;20019;-82
2021/08/19 06:30:35;;;;;;;23.05;16.25;;;;;;;19.35;64.88;99474.72;6040336;23;20041;-82
2021/08/19 06:33:03;;;;;;;20.58;15.18;;;;;;;19.37;64.99;99481.59;6040384;23;20023;-82
2021/08/19 06:35:30;;;;;;;20.40;15.35;;;;;;;19.41;64.69;99476.81;6039850;23;20019;-82
2021/08/19 06:38:23;;;;;;;27.08;15.70;;;;;;;19.38;65.47;99474.44;6039910;23;20085;-82
2021/08/19 06:41:31;;;;;;;23.77;15.52;;;;;;;19.41;65.72;99476.81;6043458;23;20030;-82
2021/08/19 06:43:57;;;;;;;25.83;15.45;;;;;;;19.49;65.03;99476.03;6044176;23;20022;-81
2021/08/19 06:46:24;;;;;;;23.35;15.77;;;;;;;19.52;65.26;99478.41;6044995;23;20029;-81
2021/08/19 06:49:36;;;;;;;21.30;15.63;;;;;;;19.51;65.83;99482.06;6045224;23;20029;-81
2021/08/19 06:52:03;;;;;;;22.83;16.05;;;;;;;19.59;65.11;99475.97;6044788;23;20023;-82
2021/08/19 06:54:30;;;;;;;22.30;15.77;;;;;;;19.61;65.44;99474.81;6044782;23;20023;-82
2021/08/19 06:56:56;;;;;;;17.83;14.35;;;;;;;19.65;65.32;99478.84;6044965;23;20023;-82
2021/08/19 06:59:23;;;;;;;22.35;15.88;;;;;;;19.69;65.63;99473.22;6044453;23;20029;-82
2021/08/19 07:01:52;;;;;;;25.63;16.52;;;;;;;19.72;65.69;99471.06;6044482;23;20037;-81
2021/08/19 07:04:19;;;;;;;22.77;17.35;;;;;;;19.77;65.31;99468.78;6044960;23;20069;-81
2021/08/19 07:06:48;;;;;;;21.73;16.30;;;;;;;19.82;65.44;99472.81;6044704;23;20105;-80
2021/08/19 07:09:15;;;;;;;22.10;15.93;;;;;;;19.86;65.70;99472.34;6044613;23;20069;-79
2021/08/19 07:11:42;;;;;;;25.38;17.40;;;;;;;19.91;65.16;99474.53;6044475;23;20070;-79
2021/08/19 07:14:09;;;;;;;22.77;16.95;;;;;;;19.94;65.69;99471.56;6044552;23;20105;-79
2021/08/19 07:16:37;;;;;;;21.40;17.08;;;;;;;19.98;65.22;99474.75;6045011;23;20027;-81
2021/08/19 07:19:05;;;;;;;22.75;17.38;;;;;;;20.01;65.57;99475.34;6044821;23;20034;-80
2021/08/19 07:21:32;;;;;;;23.65;16.83;;;;;;;20.05;65.53;99470.50;6044427;23;20030;-82
2021/08/19 07:24:00;;;;;;;25.83;18.27;;;;;;;20.07;65.41;99478.38;6044590;23;20466;-80
2021/08/19 07:26:26;;;;;;;28.30;17.08;;;;;;;20.11;65.48;99474.41;6044834;23;20031;-80
2021/08/19 07:28:54;;;;;;;21.85;16.85;;;;;;;20.14;65.56;99474.91;6069510;23;20019;-80
2021/08/19 07:31:20;;;;;;;22.40;17.33;;;;;;;20.17;65.48;99469.25;6044422;23;20030;-80
2021/08/19 07:33:47;;;;;;;20.50;16.33;;;;;;;20.22;65.56;99470.63;6044270;23;20110;-80
2021/08/19 07:36:16;;;;;;;21.73;16.00;;;;;;;20.24;65.68;99474.81;6044755;23;20458;-80
2021/08/19 07:38:43;;;;;;;23.90;17.45;;;;;;;20.29;65.42;99477.00;6044342;23;20407;-80
2021/08/19 07:41:09;;;;;;;22.95;16.48;;;;;;;20.32;65.40;99482.03;6043317;23;20027;-80
2021/08/19 07:43:37;;;;;;;20.75;17.08;;;;;;;20.34;65.30;99477.38;6044528;23;20045;-79
2021/08/19 07:46:04;;;;;;;22.98;17.40;;;;;;;20.37;65.12;99478.91;6069209;23;20022;-80
2021/08/19 07:48:31;;;;;;;21.58;16.40;;;;;;;20.39;64.97;99483.09;6044327;23;20033;-82
2021/08/19 07:50:58;;;;;;;22.65;17.35;;;;;;;20.41;65.22;99485.59;6069720;23;20354;-82
2021/08/19 07:53:25;;;;;;;23.20;15.85;;;;;;;20.43;65.12;99494.28;6044318;23;20041;-80
2021/08/19 07:56:05;;;;;;;21.95;16.80;;;;;;;20.38;65.54;99488.59;6044416;23;20045;-79
2021/08/19 07:58:31;;;;;;;18.45;15.00;;;;;;;20.41;65.10;99494.44;6044856;23;20431;-79
2021/08/19 08:01:19;;;;;;;20.27;15.98;;;;;;;20.34;65.62;99489.91;6044220;23;20030;-80
2021/08/19 08:03:46;;;;;;;19.27;14.65;;;;;;;20.37;64.98;99495.75;6044876;23;20423;-79
2021/08/19 08:06:18;;;;;;;19.33;15.90;;;;;;;20.34;65.48;99500.59;6044168;23;20074;-80
2021/08/19 08:08:45;;;;;;;23.45;15.07;;;;;;;20.33;65.48;99498.91;6044403;23;20027;-80
2021/08/19 08:11:22;;;;;;;20.50;15.98;;;;;;;20.29;66.01;99501.03;6044071;23;20026;-79
2021/08/19 08:13:49;;;;;;;19.40;15.85;;;;;;;20.31;65.63;99507.09;6044153;23;20029;-80
2021/08/19 08:16:15;;;;;;;22.95;16.77;;;;;;;20.30;65.39;99510.75;6044335;23;20084;-79
2021/08/19 08:18:43;;;;;;;20.88;15.93;;;;;;;20.29;65.83;99503.72;6043964;23;20023;-79
2021/08/19 08:21:13;;;;;;;24.40;16.55;;;;;;;20.29;65.63;99506.38;6044266;23;20102;-82
2021/08/19 08:23:41;;;;;;;20.08;15.18;;;;;;;20.29;65.62;99514.41;6043775;23;20029;-81
2021/08/19 08:26:11;;;;;;;17.58;14.20;;;;;;;20.28;66.25;99518.09;6044395;23;20439;-82
2021/08/19 08:28:38;;;;;;;17.52;14.32;;;;;;;20.30;66.03;99513.44;6043777;23;20023;-82
2021/08/19 08:31:05;;;;;;;20.10;16.73;;;;;;;20.30;66.16;99522.28;6044378;23;20439;-80
2021/08/19 08:33:57;;;;;;;22.00;15.57;;;;;;;20.26;66.53;99518.25;6044690;23;20323;-80
2021/08/19 08:36:24;;;;;;;20.65;14.43;;;;;;;20.31;65.83;99525.81;6044129;23;20058;-80
2021/08/19 08:38:50;;;;;;;18.65;15.55;;;;;;;20.31;66.00;99521.28;6044090;23;20344;-81
2021/08/19 08:41:19;;;;;;;17.92;14.48;;;;;;;20.29;66.57;99519.75;6043541;23;20037;-80
2021/08/19 08:43:51;;;;;;;19.50;14.75;;;;;;;20.29;67.01;99511.75;6042589;23;20454;-80
2021/08/19 08:46:22;;;;;;;19.63;15.70;;;;;;;20.31;66.83;99518.59;6042939;23;20418;-81
2021/08/19 08:48:53;;;;;;;21.30;14.80;;;;;;;20.34;66.49;99522.81;6042597;23;20057;-81
2021/08/19 08:51:20;;;;;;;20.95;15.20;;;;;;;20.35;66.35;99521.81;6042572;23;20023;-81
2021/08/19 08:53:50;;;;;;;17.55;15.27;;;;;;;20.35;66.86;99524.50;6042682;23;20023;-80
2021/08/19 08:56:23;;;;;;;20.73;15.50;;;;;;;20.35;66.36;99524.50;6044018;23;20026;-81
2021/08/19 08:58:49;;;;;;;19.52;16.27;;;;;;;20.36;66.48;99530.66;6042717;23;20029;-81
2021/08/19 09:01:16;;;;;;;20.40;15.93;;;;;;;20.36;66.48;99526.16;6042367;23;20023;-81
2021/08/19 09:03:44;;;;;;;19.33;14.77;;;;;;;20.40;66.66;99532.03;6042350;23;20442;-81
2021/08/19 09:06:10;;;;;;;20.20;15.38;;;;;;;20.42;66.75;99530.03;6042633;23;20029;-81
2021/08/19 09:08:48;;;;;;;20.02;14.77;;;;;;;20.43;66.96;99535.25;6042498;23;20019;-81
2021/08/19 09:11:15;;;;;;;21.30;14.88;;;;;;;20.46;66.20;99533.22;6042474;23;20105;-81
2021/08/19 09:13:43;;;;;;;18.05;13.93;;;;;;;20.47;66.39;99540.25;6042326;23;20050;-80
2021/08/19 09:16:15;;;;;;;19.65;14.68;;;;;;;20.45;66.73;99532.41;6042705;23;20346;-80
2021/08/19 09:18:42;;;;;;;18.05;14.00;;;;;;;20.47;66.38;99537.56;6042748;23;20534;-82
2021/08/19 09:21:25;;;;;;;19.10;15.07;;;;;;;20.43;66.63;99537.06;6042202;23;20022;-82
2021/08/19 09:24:28;;;;;;;19.90;14.35;;;;;;;20.43;67.00;99535.25;6042221;23;20445;-80
2021/08/19 09:27:08;;;;;;;17.65;13.73;;;;;;;20.48;66.69;99540.09;5970144;23;20114;-80
2021/08/19 09:29:35;;;;;;;20.13;15.00;;;;;;;20.53;66.95;99537.78;6042720;23;20029;-80
2021/08/19 09:32:26;;;;;;;24.17;14.98;;;;;;;20.53;67.26;99537.78;6042649;23;20354;-79
2021/08/19 09:34:53;;;;;;;16.48;13.15;;;;;;;20.59;67.03;99540.84;6042416;23;20029;-79
2021/08/19 09:37:20;;;;;;;19.30;13.52;;;;;;;20.62;66.69;99541.34;6042485;23;20101;-79
2021/08/19 09:39:58;;;;;;;18.73;13.02;;;;;;;20.62;66.55;99536.00;6042234;23;20342;-80
2021/08/19 09:42:40;;;;;;;17.58;13.82;;;;;;;20.64;66.90;99536.66;6038865;23;20028;-80
2021/08/19 09:45:21;;;;;;;18.57;12.53;;;;;;;20.67;66.31;99541.72;5976259;23;1149551;-79
2021/08/19 09:47:50;;;;;;;17.25;13.60;;;;;;;20.73;65.87;99537.56;6036539;23;20028;-79
2021/08/19 09:50:22;;;;;;;17.52;13.13;;;;;;;20.73;65.78;99542.91;6038807;23;20023;-81
2021/08/19 09:52:52;;;;;;;15.45;12.35;;;;;;;20.71;65.54;99542.25;6038198;23;20024;-82
2021/08/19 09:55:22;;;;;;;15.20;12.13;;;;;;;20.71;65.54;99536.91;6038651;23;20031;-81
2021/08/19 09:57:49;;;;;;;18.55;12.95;;;;;;;20.70;65.81;99541.41;6038350;23;20029;-79
2021/08/19 10:00:40;;;;;;;17.08;12.85;;;;;;;20.67;65.72;99533.69;6038257;23;20023;-80
2021/08/19 10:03:10;;;;;;;18.63;12.38;;;;;;;20.72;65.57;99541.25;6038305;23;20038;-80
2021/08/19 10:05:47;;;;;;;18.33;13.20;;;;;;;20.69;65.78;99547.75;6038144;23;20031;-81
2021/08/19 10:08:13;;;;;;;17.38;12.65;;;;;;;;;;6038826;23;20037;-80
2021/08/19 10:10:53;;;;;;;21.48;12.40;;;;;;;20.70;65.77;99544.06;6038065;23;20019;-80
2021/08/19 10:13:21;;;;;;;17.70;13.98;;;;;;;20.77;65.49;99546.09;6038493;23;20029;-81
2021/08/19 10:16:00;;;;;;;16.70;13.70;;;;;;;20.72;65.96;99543.91;6038497;23;20447;-80
2021/08/19 10:18:30;;;;;;;16.08;13.60;;;;;;;20.76;65.53;99545.28;6038623;23;20339;-80
2021/08/19 10:21:08;;;;;;;19.38;14.23;;;;;;;20.71;65.71;99544.94;6038162;23;20102;-80
2021/08/19 10:23:56;;;;;;;16.80;13.27;;;;;;;20.75;65.51;99540.09;6037978;23;20024;-80
2021/08/19 10:26:24;;;;;;;16.58;13.82;;;;;;;20.73;65.57;99542.91;6038566;23;20342;-80
2021/08/19 10:28:56;;;;;;;18.67;14.93;;;;;;;20.73;66.02;99544.75;6037884;23;20028;-80
2021/08/19 10:31:45;;;;;;;18.73;14.38;;;;;;;20.70;66.49;99544.06;6041186;23;20027;-80
2021/08/19 10:34:16;;;;;;;16.48;13.98;;;;;;;;;;6039310;23;20022;-80
2021/08/19 10:36:47;;;;;;;19.77;14.82;;;;;;;20.78;65.79;99545.13;6039136;23;20027;-80
2021/08/19 10:39:25;;;;;;;18.75;14.70;;;;;;;20.78;66.25;99545.13;6039920;23;20075;-81
2021/08/19 10:41:53;;;;;;;17.80;14.25;;;;;;;20.81;66.53;99544.78;6039810;23;20460;-80
2021/08/19 10:44:44;;;;;;;16.60;14.35;;;;;;;20.83;66.62;99540.13;6035719;23;20358;-81
2021/08/19 10:47:44;;;;;;;19.55;15.35;;;;;;;20.87;66.50;99533.50;6041733;23;20041;-80
2021/08/19 10:50:29;;;;;;;18.08;13.73;;;;;;;20.95;66.66;99535.34;6040496;23;20375;-80
2021/08/19 10:53:08;;;;;;;20.02;15.63;;;;;;;21.01;66.35;99529.34;6040095;23;20027;-80
2021/08/19 10:55:40;;;;;;;16.13;14.40;;;;;;;21.03;66.23;99537.22;6041761;23;20031;-80
2021/08/19 10:58:27;;;;;;;19.42;16.45;;;;;;;21.05;66.47;99535.25;6040204;23;20030;-80
2021/08/19 11:00:58;;;;;;;17.95;15.65;;;;;;;21.12;66.03;99530.06;6039967;23;20481;-80
2021/08/19 11:03:37;;;;;;;19.08;14.93;;;;;;;21.11;66.40;99531.91;6040119;23;20406;-80
2021/08/19 11:06:13;;;;;;;23.27;18.70;;;;;;;21.15;66.06;99537.78;6039983;23;20347;-80
2021/08/19 11:08:57;;;;;;;21.80;18.45;;;;;;;21.15;65.91;99537.78;6040037;23;20034;-80
2021/08/19 11:11:37;;;;;;;24.80;18.95;;;;;;;21.16;65.85;99542.94;6039780;23;20058;-80
2021/08/19 11:14:08;;;;;;;20.38;18.10;;;;;;;21.18;65.67;99538.28;6039363;23;20023;-80
2021/08/19 11:16:37;;;;;;;23.83;17.98;;;;;;;21.17;65.29;99535.78;6039678;23;20075;-80
2021/08/19 11:19:20;;;;;;;21.13;16.33;;;;;;;21.12;65.61;99538.91;6039910;23;20455;-78
2021/08/19 11:22:01;;;;;;;18.73;15.85;;;;;;;21.07;65.82;99541.25;6039519;23;20031;-79
2021/08/19 11:24:30;;;;;;;20.33;17.30;;;;;;;21.10;65.74;99540.94;6039406;23;20031;-79
2021/08/19 11:27:07;;;;;;;24.13;18.02;;;;;;;21.08;66.35;99537.56;6039852;23;20023;-78
2021/08/19 11:29:42;;;;;;;23.10;18.33;;;;;;;21.10;66.75;99540.94;6039498;23;20024;-78
2021/08/19 11:32:29;;;;;;;22.95;18.48;;;;;;;21.18;66.28;99546.31;6039781;23;20344;-77
2021/08/19 11:34:56;;;;;;;23.17;19.08;;;;;;;21.21;66.33;99547.84;6039166;23;20027;-79
2021/08/19 11:37:31;;;;;;;24.25;18.02;;;;;;;21.20;66.50;99538.94;6015855;23;20024;-78